sensor_id;sensor_type;location;lat;lon;timestamp;temperature;humidity
18934;DHT22;9599;53.706;10.384;2023-05-07T00:01:35;10.20;99.90
18934;DHT22;9599;53.706;10.384;2023-05-07T00:04:03;10.10;99.90
18934;DHT22;9599;53.706;10.384;2023-05-07T00:06:32;10.10;99.90
18934;DHT22;9599;53.706;10.384;2023-05-07T00:09:02;10.10;99.90
18934;DHT22;9599;53.706;10.384;2023-05-07T00:11:31;10.10;99.90
18934;DHT22;9599;53.706;10.384;2023-05-07T00:14:00;10.10;99.90
18934;DHT22;9599;53.706;10.384;2023-05-07T00:16:28;10.10;99.90
18934;DHT22;9599;53.706;10.384;2023-05-07T00:18:56;10.10;99.90
18934;DHT22;9599;53.706;10.384;2023-05-07T00:21:24;10.10;99.90
18934;DHT22;9599;53.706;10.384;2023-05-07T00:23:53;10.10;99.90
18934;DHT22;9599;53.706;10.384;2023-05-07T00:26:23;10.10;99.90
18934;DHT22;9599;53.706;10.384;2023-05-07T00:28:51;10.10;99.90
18934;DHT22;9599;53.706;10.384;2023-05-07T00:31:19;10.10;99.90
18934;DHT22;9599;53.706;10.384;2023-05-07T00:33:47;10.10;99.90
18934;DHT22;9599;53.706;10.384;2023-05-07T00:36:15;10.10;99.90
18934;DHT22;9599;53.706;10.384;2023-05-07T00:38:43;10.10;99.90
18934;DHT22;9599;53.706;10.384;2023-05-07T00:41:11;10.10;99.90
18934;DHT22;9599;53.706;10.384;2023-05-07T00:43:40;10.00;99.90
18934;DHT22;9599;53.706;10.384;2023-05-07T00:46:09;10.00;99.90
18934;DHT22;9599;53.706;10.384;2023-05-07T00:48:37;10.00;99.90
18934;DHT22;9599;53.706;10.384;2023-05-07T00:51:05;10.00;99.90
18934;DHT22;9599;53.706;10.384;2023-05-07T00:53:34;10.00;99.90
18934;DHT22;9599;53.706;10.384;2023-05-07T00:56:02;10.00;99.90
18934;DHT22;9599;53.706;10.384;2023-05-07T00:58:31;9.90;99.90
18934;DHT22;9599;53.706;10.384;2023-05-07T01:01:01;9.90;99.90
18934;DHT22;9599;53.706;10.384;2023-05-07T01:03:29;9.90;99.90
18934;DHT22;9599;53.706;10.384;2023-05-07T01:05:59;9.90;99.90
18934;DHT22;9599;53.706;10.384;2023-05-07T01:08:29;10.00;99.90
18934;DHT22;9599;53.706;10.384;2023-05-07T01:10:59;10.00;99.90
18934;DHT22;9599;53.706;10.384;2023-05-07T01:13:27;10.00;99.90
18934;DHT22;9599;53.706;10.384;2023-05-07T01:15:55;10.00;99.90
18934;DHT22;9599;53.706;10.384;2023-05-07T01:18:25;10.00;99.90
18934;DHT22;9599;53.706;10.384;2023-05-07T01:20:54;10.00;99.90
18934;DHT22;9599;53.706;10.384;2023-05-07T01:23:25;9.90;99.90
18934;DHT22;9599;53.706;10.384;2023-05-07T01:25:53;9.90;99.90
18934;DHT22;9599;53.706;10.384;2023-05-07T01:28:24;9.90;99.90
18934;DHT22;9599;53.706;10.384;2023-05-07T01:30:59;9.90;99.90
18934;DHT22;9599;53.706;10.384;2023-05-07T01:33:31;10.00;99.90
18934;DHT22;9599;53.706;10.384;2023-05-07T01:35:59;10.00;99.90
18934;DHT22;9599;53.706;10.384;2023-05-07T01:38:32;10.00;99.90
18934;DHT22;9599;53.706;10.384;2023-05-07T01:41:00;10.00;99.90
18934;DHT22;9599;53.706;10.384;2023-05-07T01:43:29;10.00;99.90
18934;DHT22;9599;53.706;10.384;2023-05-07T01:45:57;10.00;99.90
18934;DHT22;9599;53.706;10.384;2023-05-07T01:48:26;10.00;99.90
18934;DHT22;9599;53.706;10.384;2023-05-07T01:50:56;9.90;99.90
18934;DHT22;9599;53.706;10.384;2023-05-07T01:53:27;9.90;99.90
18934;DHT22;9599;53.706;10.384;2023-05-07T01:55:56;9.90;99.90
18934;DHT22;9599;53.706;10.384;2023-05-07T01:58:26;9.90;99.90
18934;DHT22;9599;53.706;10.384;2023-05-07T02:00:53;9.90;99.90
18934;DHT22;9599;53.706;10.384;2023-05-07T02:03:22;9.90;99.90
18934;DHT22;9599;53.706;10.384;2023-05-07T02:05:58;9.90;99.90
18934;DHT22;9599;53.706;10.384;2023-05-07T02:08:31;9.80;99.90
18934;DHT22;9599;53.706;10.384;2023-05-07T02:11:01;9.80;99.90
18934;DHT22;9599;53.706;10.384;2023-05-07T02:13:31;9.80;99.90
18934;DHT22;9599;53.706;10.384;2023-05-07T02:16:00;9.90;99.90
18934;DHT22;9599;53.706;10.384;2023-05-07T02:18:29;9.90;99.90
18934;DHT22;9599;53.706;10.384;2023-05-07T02:20:57;9.90;99.90
18934;DHT22;9599;53.706;10.384;2023-05-07T02:23:25;9.90;99.90
18934;DHT22;9599;53.706;10.384;2023-05-07T02:25:53;9.90;99.90
18934;DHT22;9599;53.706;10.384;2023-05-07T02:28:22;9.80;99.90
18934;DHT22;9599;53.706;10.384;2023-05-07T02:30:58;9.80;99.90
18934;DHT22;9599;53.706;10.384;2023-05-07T02:33:28;9.80;99.90
18934;DHT22;9599;53.706;10.384;2023-05-07T02:36:05;9.80;99.90
18934;DHT22;9599;53.706;10.384;2023-05-07T02:38:35;9.80;99.90
18934;DHT22;9599;53.706;10.384;2023-05-07T02:41:04;9.80;99.90
18934;DHT22;9599;53.706;10.384;2023-05-07T02:43:33;9.70;99.90
18934;DHT22;9599;53.706;10.384;2023-05-07T02:46:02;9.80;99.90
18934;DHT22;9599;53.706;10.384;2023-05-07T02:48:33;9.80;99.90
18934;DHT22;9599;53.706;10.384;2023-05-07T02:51:02;9.80;99.90
18934;DHT22;9599;53.706;10.384;2023-05-07T02:53:33;9.80;99.90
18934;DHT22;9599;53.706;10.384;2023-05-07T02:56:01;9.80;99.90
18934;DHT22;9599;53.706;10.384;2023-05-07T02:58:29;9.80;99.90
18934;DHT22;9599;53.706;10.384;2023-05-07T03:01:00;9.80;99.90
18934;DHT22;9599;53.706;10.384;2023-05-07T03:03:36;9.80;99.90
18934;DHT22;9599;53.706;10.384;2023-05-07T03:06:06;9.80;99.90
18934;DHT22;9599;53.706;10.384;2023-05-07T03:08:34;9.80;99.90
18934;DHT22;9599;53.706;10.384;2023-05-07T03:11:03;9.80;99.90
18934;DHT22;9599;53.706;10.384;2023-05-07T03:13:31;9.80;99.90
18934;DHT22;9599;53.706;10.384;2023-05-07T03:16:01;9.80;99.90
18934;DHT22;9599;53.706;10.384;2023-05-07T03:18:29;9.80;99.90
18934;DHT22;9599;53.706;10.384;2023-05-07T03:20:57;9.70;99.90
18934;DHT22;9599;53.706;10.384;2023-05-07T03:23:25;9.80;99.90
18934;DHT22;9599;53.706;10.384;2023-05-07T03:25:53;9.80;99.90
18934;DHT22;9599;53.706;10.384;2023-05-07T03:28:21;9.80;99.90
18934;DHT22;9599;53.706;10.384;2023-05-07T03:30:54;9.80;99.90
18934;DHT22;9599;53.706;10.384;2023-05-07T03:33:24;9.80;99.90
18934;DHT22;9599;53.706;10.384;2023-05-07T03:35:52;9.80;99.90
18934;DHT22;9599;53.706;10.384;2023-05-07T03:38:23;9.80;99.90
18934;DHT22;9599;53.706;10.384;2023-05-07T03:40:51;9.80;99.90
18934;DHT22;9599;53.706;10.384;2023-05-07T03:43:20;9.80;99.90
18934;DHT22;9599;53.706;10.384;2023-05-07T03:45:55;9.80;99.90
18934;DHT22;9599;53.706;10.384;2023-05-07T03:48:27;9.70;99.90
18934;DHT22;9599;53.706;10.384;2023-05-07T03:50:58;9.70;99.90
18934;DHT22;9599;53.706;10.384;2023-05-07T03:53:31;9.80;99.90
18934;DHT22;9599;53.706;10.384;2023-05-07T03:55:59;9.80;99.90
18934;DHT22;9599;53.706;10.384;2023-05-07T03:58:30;9.70;99.90
18934;DHT22;9599;53.706;10.384;2023-05-07T04:01:04;9.70;99.90
18934;DHT22;9599;53.706;10.384;2023-05-07T04:03:33;9.70;99.90
18934;DHT22;9599;53.706;10.384;2023-05-07T04:06:01;9.70;99.90
18934;DHT22;9599;53.706;10.384;2023-05-07T04:08:32;9.80;99.90
18934;DHT22;9599;53.706;10.384;2023-05-07T04:11:00;9.80;99.90
18934;DHT22;9599;53.706;10.384;2023-05-07T04:13:31;9.80;99.90
18934;DHT22;9599;53.706;10.384;2023-05-07T04:16:02;9.80;99.90
18934;DHT22;9599;53.706;10.384;2023-05-07T04:18:34;9.80;99.90
18934;DHT22;9599;53.706;10.384;2023-05-07T04:21:02;9.80;99.90
18934;DHT22;9599;53.706;10.384;2023-05-07T04:23:30;9.80;99.90
18934;DHT22;9599;53.706;10.384;2023-05-07T04:26:02;9.80;99.90
18934;DHT22;9599;53.706;10.384;2023-05-07T04:28:36;9.70;99.90
18934;DHT22;9599;53.706;10.384;2023-05-07T04:31:04;9.80;99.90
18934;DHT22;9599;53.706;10.384;2023-05-07T04:33:35;9.80;99.90
18934;DHT22;9599;53.706;10.384;2023-05-07T04:36:05;9.80;99.90
18934;DHT22;9599;53.706;10.384;2023-05-07T04:38:39;9.80;99.90
18934;DHT22;9599;53.706;10.384;2023-05-07T04:41:09;9.80;99.90
18934;DHT22;9599;53.706;10.384;2023-05-07T04:43:39;9.80;99.90
18934;DHT22;9599;53.706;10.384;2023-05-07T04:46:11;9.80;99.90
18934;DHT22;9599;53.706;10.384;2023-05-07T04:48:42;9.80;99.90
18934;DHT22;9599;53.706;10.384;2023-05-07T04:51:11;9.80;99.90
18934;DHT22;9599;53.706;10.384;2023-05-07T04:53:39;9.80;99.90
18934;DHT22;9599;53.706;10.384;2023-05-07T04:56:07;9.80;99.90
18934;DHT22;9599;53.706;10.384;2023-05-07T04:58:41;9.80;99.90
18934;DHT22;9599;53.706;10.384;2023-05-07T05:01:10;9.90;99.90
18934;DHT22;9599;53.706;10.384;2023-05-07T05:03:39;9.80;99.90
18934;DHT22;9599;53.706;10.384;2023-05-07T05:06:09;9.90;99.90
18934;DHT22;9599;53.706;10.384;2023-05-07T05:08:37;9.90;99.90
18934;DHT22;9599;53.706;10.384;2023-05-07T05:11:05;9.90;99.90
18934;DHT22;9599;53.706;10.384;2023-05-07T05:13:35;9.90;99.90
18934;DHT22;9599;53.706;10.384;2023-05-07T05:16:11;10.00;99.90
18934;DHT22;9599;53.706;10.384;2023-05-07T05:18:40;10.00;99.90
18934;DHT22;9599;53.706;10.384;2023-05-07T05:21:11;10.00;99.90
18934;DHT22;9599;53.706;10.384;2023-05-07T05:23:41;10.00;99.90
18934;DHT22;9599;53.706;10.384;2023-05-07T05:26:10;10.10;99.90
18934;DHT22;9599;53.706;10.384;2023-05-07T05:28:38;10.10;99.90
18934;DHT22;9599;53.706;10.384;2023-05-07T05:31:06;10.10;99.90
18934;DHT22;9599;53.706;10.384;2023-05-07T05:33:36;10.10;99.90
18934;DHT22;9599;53.706;10.384;2023-05-07T05:36:05;10.20;99.90
18934;DHT22;9599;53.706;10.384;2023-05-07T05:38:37;10.10;99.90
18934;DHT22;9599;53.706;10.384;2023-05-07T05:41:06;10.20;99.90
18934;DHT22;9599;53.706;10.384;2023-05-07T05:43:34;10.20;99.90
18934;DHT22;9599;53.706;10.384;2023-05-07T05:46:03;10.20;99.90
18934;DHT22;9599;53.706;10.384;2023-05-07T05:48:32;10.20;99.90
18934;DHT22;9599;53.706;10.384;2023-05-07T05:51:01;10.20;99.90
18934;DHT22;9599;53.706;10.384;2023-05-07T05:53:30;10.30;99.90
18934;DHT22;9599;53.706;10.384;2023-05-07T05:55:59;10.30;99.90
18934;DHT22;9599;53.706;10.384;2023-05-07T05:58:28;10.30;99.90
18934;DHT22;9599;53.706;10.384;2023-05-07T06:01:00;10.30;99.90
18934;DHT22;9599;53.706;10.384;2023-05-07T06:03:29;10.30;99.90
18934;DHT22;9599;53.706;10.384;2023-05-07T06:06:01;10.40;99.90
18934;DHT22;9599;53.706;10.384;2023-05-07T06:08:30;10.40;99.90
18934;DHT22;9599;53.706;10.384;2023-05-07T06:11:01;10.50;99.90
18934;DHT22;9599;53.706;10.384;2023-05-07T06:13:32;10.50;99.90
18934;DHT22;9599;53.706;10.384;2023-05-07T06:16:00;10.50;99.90
18934;DHT22;9599;53.706;10.384;2023-05-07T06:18:29;10.60;99.90
18934;DHT22;9599;53.706;10.384;2023-05-07T06:20:57;10.60;99.90
18934;DHT22;9599;53.706;10.384;2023-05-07T06:23:29;10.60;99.90
18934;DHT22;9599;53.706;10.384;2023-05-07T06:26:00;10.60;99.90
18934;DHT22;9599;53.706;10.384;2023-05-07T06:28:33;10.60;99.90
18934;DHT22;9599;53.706;10.384;2023-05-07T06:31:12;10.60;99.90
18934;DHT22;9599;53.706;10.384;2023-05-07T06:33:43;10.70;99.90
18934;DHT22;9599;53.706;10.384;2023-05-07T06:36:11;10.70;99.90
18934;DHT22;9599;53.706;10.384;2023-05-07T06:38:40;10.80;99.90
18934;DHT22;9599;53.706;10.384;2023-05-07T06:41:09;10.80;99.90
18934;DHT22;9599;53.706;10.384;2023-05-07T06:43:38;10.90;99.90
18934;DHT22;9599;53.706;10.384;2023-05-07T06:46:23;11.00;99.90
18934;DHT22;9599;53.706;10.384;2023-05-07T06:48:51;11.00;99.90
18934;DHT22;9599;53.706;10.384;2023-05-07T06:51:20;11.10;99.90
18934;DHT22;9599;53.706;10.384;2023-05-07T06:53:48;11.10;99.90
18934;DHT22;9599;53.706;10.384;2023-05-07T06:56:17;11.10;99.90
18934;DHT22;9599;53.706;10.384;2023-05-07T06:58:46;11.20;99.90
18934;DHT22;9599;53.706;10.384;2023-05-07T07:01:14;11.20;99.90
18934;DHT22;9599;53.706;10.384;2023-05-07T07:03:43;11.10;99.90
18934;DHT22;9599;53.706;10.384;2023-05-07T07:06:11;11.30;99.90
18934;DHT22;9599;53.706;10.384;2023-05-07T07:08:39;11.30;99.90
18934;DHT22;9599;53.706;10.384;2023-05-07T07:11:10;11.40;99.90
18934;DHT22;9599;53.706;10.384;2023-05-07T07:13:40;11.50;99.90
18934;DHT22;9599;53.706;10.384;2023-05-07T07:16:08;11.50;99.90
18934;DHT22;9599;53.706;10.384;2023-05-07T07:18:36;11.50;99.90
18934;DHT22;9599;53.706;10.384;2023-05-07T07:21:04;11.50;99.90
18934;DHT22;9599;53.706;10.384;2023-05-07T07:23:32;11.40;99.90
18934;DHT22;9599;53.706;10.384;2023-05-07T07:26:00;11.40;99.90
18934;DHT22;9599;53.706;10.384;2023-05-07T07:28:28;11.40;99.90
18934;DHT22;9599;53.706;10.384;2023-05-07T07:30:58;11.40;99.90
18934;DHT22;9599;53.706;10.384;2023-05-07T07:33:26;11.40;99.90
18934;DHT22;9599;53.706;10.384;2023-05-07T07:35:56;11.50;99.90
18934;DHT22;9599;53.706;10.384;2023-05-07T07:38:24;11.50;99.90
18934;DHT22;9599;53.706;10.384;2023-05-07T07:40:52;11.50;99.90
18934;DHT22;9599;53.706;10.384;2023-05-07T07:43:23;11.60;99.90
18934;DHT22;9599;53.706;10.384;2023-05-07T07:45:51;11.60;99.90
18934;DHT22;9599;53.706;10.384;2023-05-07T07:48:21;11.70;99.90
18934;DHT22;9599;53.706;10.384;2023-05-07T07:50:49;11.80;99.90
18934;DHT22;9599;53.706;10.384;2023-05-07T07:53:18;11.80;99.90
18934;DHT22;9599;53.706;10.384;2023-05-07T07:55:46;11.80;99.90
18934;DHT22;9599;53.706;10.384;2023-05-07T07:58:17;12.00;99.90
18934;DHT22;9599;53.706;10.384;2023-05-07T08:00:46;12.00;99.90
18934;DHT22;9599;53.706;10.384;2023-05-07T08:03:14;12.10;99.90
18934;DHT22;9599;53.706;10.384;2023-05-07T08:05:49;12.20;99.90
18934;DHT22;9599;53.706;10.384;2023-05-07T08:08:18;12.20;99.90
18934;DHT22;9599;53.706;10.384;2023-05-07T08:10:46;12.20;99.90
18934;DHT22;9599;53.706;10.384;2023-05-07T08:13:24;12.20;99.90
18934;DHT22;9599;53.706;10.384;2023-05-07T08:15:52;12.10;99.90
18934;DHT22;9599;53.706;10.384;2023-05-07T08:18:21;12.20;99.90
18934;DHT22;9599;53.706;10.384;2023-05-07T08:20:52;12.30;99.90
18934;DHT22;9599;53.706;10.384;2023-05-07T08:23:23;12.20;99.90
18934;DHT22;9599;53.706;10.384;2023-05-07T08:25:51;12.20;99.90
18934;DHT22;9599;53.706;10.384;2023-05-07T08:28:19;12.20;99.90
18934;DHT22;9599;53.706;10.384;2023-05-07T08:30:48;12.20;99.90
18934;DHT22;9599;53.706;10.384;2023-05-07T08:33:16;12.10;99.90
18934;DHT22;9599;53.706;10.384;2023-05-07T08:35:45;12.10;99.90
18934;DHT22;9599;53.706;10.384;2023-05-07T08:38:15;12.20;99.90
18934;DHT22;9599;53.706;10.384;2023-05-07T08:40:43;12.20;99.90
18934;DHT22;9599;53.706;10.384;2023-05-07T08:43:18;12.30;99.90
18934;DHT22;9599;53.706;10.384;2023-05-07T08:45:49;12.30;99.90
18934;DHT22;9599;53.706;10.384;2023-05-07T08:48:25;12.50;99.90
18934;DHT22;9599;53.706;10.384;2023-05-07T08:51:03;12.50;99.90
18934;DHT22;9599;53.706;10.384;2023-05-07T08:53:34;12.60;99.90
18934;DHT22;9599;53.706;10.384;2023-05-07T08:56:04;12.60;99.90
18934;DHT22;9599;53.706;10.384;2023-05-07T08:58:32;12.70;99.90
18934;DHT22;9599;53.706;10.384;2023-05-07T09:01:02;12.90;99.90
18934;DHT22;9599;53.706;10.384;2023-05-07T09:03:31;13.00;99.90
18934;DHT22;9599;53.706;10.384;2023-05-07T09:05:59;13.10;99.90
18934;DHT22;9599;53.706;10.384;2023-05-07T09:08:29;13.10;99.90
18934;DHT22;9599;53.706;10.384;2023-05-07T09:11:01;13.10;99.90
18934;DHT22;9599;53.706;10.384;2023-05-07T09:13:30;13.10;99.90
18934;DHT22;9599;53.706;10.384;2023-05-07T09:16:10;13.10;99.90
18934;DHT22;9599;53.706;10.384;2023-05-07T09:18:41;13.10;99.90
18934;DHT22;9599;53.706;10.384;2023-05-07T09:21:12;13.00;99.90
18934;DHT22;9599;53.706;10.384;2023-05-07T09:23:43;13.00;99.90
18934;DHT22;9599;53.706;10.384;2023-05-07T09:26:14;13.00;99.90
18934;DHT22;9599;53.706;10.384;2023-05-07T09:28:44;13.00;99.90
18934;DHT22;9599;53.706;10.384;2023-05-07T09:31:13;13.10;99.90
18934;DHT22;9599;53.706;10.384;2023-05-07T09:33:43;13.30;99.90
18934;DHT22;9599;53.706;10.384;2023-05-07T09:36:12;13.50;99.90
18934;DHT22;9599;53.706;10.384;2023-05-07T09:38:41;13.70;99.90
18934;DHT22;9599;53.706;10.384;2023-05-07T09:41:12;13.80;99.90
18934;DHT22;9599;53.706;10.384;2023-05-07T09:43:55;14.00;99.90
18934;DHT22;9599;53.706;10.384;2023-05-07T09:46:31;14.10;99.90
18934;DHT22;9599;53.706;10.384;2023-05-07T09:49:07;14.20;99.90
18934;DHT22;9599;53.706;10.384;2023-05-07T09:51:45;14.40;99.90
18934;DHT22;9599;53.706;10.384;2023-05-07T09:54:15;14.50;99.90
18934;DHT22;9599;53.706;10.384;2023-05-07T09:56:48;14.60;99.90
18934;DHT22;9599;53.706;10.384;2023-05-07T09:59:20;14.70;99.90
18934;DHT22;9599;53.706;10.384;2023-05-07T10:01:49;14.70;99.90
18934;DHT22;9599;53.706;10.384;2023-05-07T10:04:20;14.70;99.90
18934;DHT22;9599;53.706;10.384;2023-05-07T10:06:49;14.70;99.90
18934;DHT22;9599;53.706;10.384;2023-05-07T10:09:18;14.80;99.90
18934;DHT22;9599;53.706;10.384;2023-05-07T10:11:48;14.90;99.90
18934;DHT22;9599;53.706;10.384;2023-05-07T10:14:18;14.90;99.90
18934;DHT22;9599;53.706;10.384;2023-05-07T10:16:48;14.90;99.90
18934;DHT22;9599;53.706;10.384;2023-05-07T10:19:17;15.00;99.90
18934;DHT22;9599;53.706;10.384;2023-05-07T10:21:54;15.10;99.90
18934;DHT22;9599;53.706;10.384;2023-05-07T10:24:26;15.10;99.90
18934;DHT22;9599;53.706;10.384;2023-05-07T10:26:57;15.00;99.90
18934;DHT22;9599;53.706;10.384;2023-05-07T10:29:35;15.00;99.90
18934;DHT22;9599;53.706;10.384;2023-05-07T10:32:35;15.00;99.90
18934;DHT22;9599;53.706;10.384;2023-05-07T10:35:10;15.10;99.90
18934;DHT22;9599;53.706;10.384;2023-05-07T10:37:40;15.20;99.90
18934;DHT22;9599;53.706;10.384;2023-05-07T10:40:10;15.30;99.90
18934;DHT22;9599;53.706;10.384;2023-05-07T10:42:39;15.30;99.90
18934;DHT22;9599;53.706;10.384;2023-05-07T10:45:23;15.50;99.90
18934;DHT22;9599;53.706;10.384;2023-05-07T10:48:06;15.60;99.90
18934;DHT22;9599;53.706;10.384;2023-05-07T10:51:18;15.70;99.90
18934;DHT22;9599;53.706;10.384;2023-05-07T10:53:47;16.10;99.90
18934;DHT22;9599;53.706;10.384;2023-05-07T10:56:26;16.70;99.90
18934;DHT22;9599;53.706;10.384;2023-05-07T10:59:35;17.10;99.90
18934;DHT22;9599;53.706;10.384;2023-05-07T11:06:10;16.80;99.90
18934;DHT22;9599;53.706;10.384;2023-05-07T11:09:01;16.60;99.90
18934;DHT22;9599;53.706;10.384;2023-05-07T11:11:44;16.60;99.90
18934;DHT22;9599;53.706;10.384;2023-05-07T11:14:43;16.60;99.90
18934;DHT22;9599;53.706;10.384;2023-05-07T11:17:19;16.90;99.90
18934;DHT22;9599;53.706;10.384;2023-05-07T11:19:56;17.00;99.90
18934;DHT22;9599;53.706;10.384;2023-05-07T11:22:51;16.90;99.90
18934;DHT22;9599;53.706;10.384;2023-05-07T11:25:36;17.10;99.90
18934;DHT22;9599;53.706;10.384;2023-05-07T11:28:12;17.30;99.90
18934;DHT22;9599;53.706;10.384;2023-05-07T11:30:46;17.50;99.90
18934;DHT22;9599;53.706;10.384;2023-05-07T11:33:17;17.50;99.90
18934;DHT22;9599;53.706;10.384;2023-05-07T11:35:48;17.30;99.90
18934;DHT22;9599;53.706;10.384;2023-05-07T11:38:20;17.50;99.90
18934;DHT22;9599;53.706;10.384;2023-05-07T11:40:49;17.80;99.90
18934;DHT22;9599;53.706;10.384;2023-05-07T11:43:18;18.20;99.90
18934;DHT22;9599;53.706;10.384;2023-05-07T11:45:47;18.50;99.90
18934;DHT22;9599;53.706;10.384;2023-05-07T11:48:16;18.50;99.90
18934;DHT22;9599;53.706;10.384;2023-05-07T11:50:50;18.90;99.90
18934;DHT22;9599;53.706;10.384;2023-05-07T11:53:22;19.10;99.90
18934;DHT22;9599;53.706;10.384;2023-05-07T11:55:52;19.20;99.90
18934;DHT22;9599;53.706;10.384;2023-05-07T11:58:22;19.40;99.90
18934;DHT22;9599;53.706;10.384;2023-05-07T12:00:50;19.50;99.90
18934;DHT22;9599;53.706;10.384;2023-05-07T12:03:18;19.40;99.90
18934;DHT22;9599;53.706;10.384;2023-05-07T12:05:47;19.50;99.90
18934;DHT22;9599;53.706;10.384;2023-05-07T12:08:15;19.50;99.90
18934;DHT22;9599;53.706;10.384;2023-05-07T12:10:46;19.40;99.90
18934;DHT22;9599;53.706;10.384;2023-05-07T12:13:15;19.30;99.90
18934;DHT22;9599;53.706;10.384;2023-05-07T12:15:44;19.30;99.90
18934;DHT22;9599;53.706;10.384;2023-05-07T12:18:12;19.50;99.90
18934;DHT22;9599;53.706;10.384;2023-05-07T12:20:41;19.80;99.90
18934;DHT22;9599;53.706;10.384;2023-05-07T12:23:10;19.70;99.90
18934;DHT22;9599;53.706;10.384;2023-05-07T12:25:39;19.60;99.90
18934;DHT22;9599;53.706;10.384;2023-05-07T12:28:12;19.70;99.90
18934;DHT22;9599;53.706;10.384;2023-05-07T12:30:42;19.60;99.90
18934;DHT22;9599;53.706;10.384;2023-05-07T12:33:11;19.30;99.90
18934;DHT22;9599;53.706;10.384;2023-05-07T12:35:40;19.30;99.90
18934;DHT22;9599;53.706;10.384;2023-05-07T12:38:09;19.30;99.90
18934;DHT22;9599;53.706;10.384;2023-05-07T12:40:39;19.30;99.90
18934;DHT22;9599;53.706;10.384;2023-05-07T12:43:07;19.20;99.90
18934;DHT22;9599;53.706;10.384;2023-05-07T12:45:41;19.20;99.90
18934;DHT22;9599;53.706;10.384;2023-05-07T12:48:10;19.00;99.90
18934;DHT22;9599;53.706;10.384;2023-05-07T12:50:38;19.10;99.90
18934;DHT22;9599;53.706;10.384;2023-05-07T12:53:07;18.90;99.90
18934;DHT22;9599;53.706;10.384;2023-05-07T12:55:43;18.80;99.90
18934;DHT22;9599;53.706;10.384;2023-05-07T12:58:16;18.80;99.90
18934;DHT22;9599;53.706;10.384;2023-05-07T13:00:48;18.70;99.90
18934;DHT22;9599;53.706;10.384;2023-05-07T13:03:21;18.80;99.90
18934;DHT22;9599;53.706;10.384;2023-05-07T13:05:51;18.90;99.90
18934;DHT22;9599;53.706;10.384;2023-05-07T13:08:30;19.20;99.90
18934;DHT22;9599;53.706;10.384;2023-05-07T13:10:59;19.10;99.90
18934;DHT22;9599;53.706;10.384;2023-05-07T13:13:30;19.00;99.90
18934;DHT22;9599;53.706;10.384;2023-05-07T13:16:00;19.00;99.90
18934;DHT22;9599;53.706;10.384;2023-05-07T13:18:30;19.10;99.90
18934;DHT22;9599;53.706;10.384;2023-05-07T13:20:59;19.10;99.90
18934;DHT22;9599;53.706;10.384;2023-05-07T13:23:27;19.10;99.90
18934;DHT22;9599;53.706;10.384;2023-05-07T13:25:55;19.10;99.90
18934;DHT22;9599;53.706;10.384;2023-05-07T13:28:24;19.00;99.90
18934;DHT22;9599;53.706;10.384;2023-05-07T13:30:52;18.80;99.90
18934;DHT22;9599;53.706;10.384;2023-05-07T13:33:22;18.60;99.90
18934;DHT22;9599;53.706;10.384;2023-05-07T13:35:50;18.40;99.90
18934;DHT22;9599;53.706;10.384;2023-05-07T13:38:18;18.30;99.90
18934;DHT22;9599;53.706;10.384;2023-05-07T13:40:48;18.20;99.90
18934;DHT22;9599;53.706;10.384;2023-05-07T13:43:16;18.10;99.90
18934;DHT22;9599;53.706;10.384;2023-05-07T13:45:45;18.20;99.90
18934;DHT22;9599;53.706;10.384;2023-05-07T13:48:13;18.20;99.90
18934;DHT22;9599;53.706;10.384;2023-05-07T13:50:42;18.20;99.90
18934;DHT22;9599;53.706;10.384;2023-05-07T13:53:11;18.30;99.90
18934;DHT22;9599;53.706;10.384;2023-05-07T13:55:38;18.30;99.90
18934;DHT22;9599;53.706;10.384;2023-05-07T13:58:07;18.40;99.90
18934;DHT22;9599;53.706;10.384;2023-05-07T14:00:35;18.60;99.90
18934;DHT22;9599;53.706;10.384;2023-05-07T14:03:04;18.60;99.90
18934;DHT22;9599;53.706;10.384;2023-05-07T14:05:33;18.40;99.90
18934;DHT22;9599;53.706;10.384;2023-05-07T14:08:03;18.40;99.90
18934;DHT22;9599;53.706;10.384;2023-05-07T14:10:31;18.30;99.90
18934;DHT22;9599;53.706;10.384;2023-05-07T14:13:01;18.30;99.90
18934;DHT22;9599;53.706;10.384;2023-05-07T14:15:29;18.30;99.90
18934;DHT22;9599;53.706;10.384;2023-05-07T14:17:59;18.20;99.90
18934;DHT22;9599;53.706;10.384;2023-05-07T14:20:28;18.30;99.90
18934;DHT22;9599;53.706;10.384;2023-05-07T14:22:57;18.30;99.90
18934;DHT22;9599;53.706;10.384;2023-05-07T14:25:26;18.40;99.90
18934;DHT22;9599;53.706;10.384;2023-05-07T14:27:54;18.60;99.90
18934;DHT22;9599;53.706;10.384;2023-05-07T14:30:22;18.60;99.90
18934;DHT22;9599;53.706;10.384;2023-05-07T14:32:51;18.90;99.90
18934;DHT22;9599;53.706;10.384;2023-05-07T14:35:19;19.10;99.90
18934;DHT22;9599;53.706;10.384;2023-05-07T14:37:47;19.10;99.90
18934;DHT22;9599;53.706;10.384;2023-05-07T14:40:15;19.20;99.90
18934;DHT22;9599;53.706;10.384;2023-05-07T14:42:45;19.30;99.90
18934;DHT22;9599;53.706;10.384;2023-05-07T14:45:12;19.50;99.90
18934;DHT22;9599;53.706;10.384;2023-05-07T14:47:40;19.50;99.90
18934;DHT22;9599;53.706;10.384;2023-05-07T14:50:09;19.50;99.90
18934;DHT22;9599;53.706;10.384;2023-05-07T14:52:37;19.50;99.90
18934;DHT22;9599;53.706;10.384;2023-05-07T14:55:05;19.50;99.90
18934;DHT22;9599;53.706;10.384;2023-05-07T14:57:34;19.50;99.90
18934;DHT22;9599;53.706;10.384;2023-05-07T15:00:05;19.80;99.90
18934;DHT22;9599;53.706;10.384;2023-05-07T15:02:34;19.80;99.90
18934;DHT22;9599;53.706;10.384;2023-05-07T15:05:03;19.90;99.90
18934;DHT22;9599;53.706;10.384;2023-05-07T15:07:32;19.80;99.90
18934;DHT22;9599;53.706;10.384;2023-05-07T15:10:01;19.70;99.90
18934;DHT22;9599;53.706;10.384;2023-05-07T15:12:29;19.70;99.90
18934;DHT22;9599;53.706;10.384;2023-05-07T15:14:56;19.70;99.90
18934;DHT22;9599;53.706;10.384;2023-05-07T15:17:26;19.60;99.90
18934;DHT22;9599;53.706;10.384;2023-05-07T15:19:54;19.30;99.90
18934;DHT22;9599;53.706;10.384;2023-05-07T15:22:22;19.10;99.90
18934;DHT22;9599;53.706;10.384;2023-05-07T15:24:50;19.00;99.90
18934;DHT22;9599;53.706;10.384;2023-05-07T15:27:18;19.00;99.90
18934;DHT22;9599;53.706;10.384;2023-05-07T15:29:46;19.00;99.90
18934;DHT22;9599;53.706;10.384;2023-05-07T15:32:14;18.90;99.90
18934;DHT22;9599;53.706;10.384;2023-05-07T15:34:43;18.90;99.90
18934;DHT22;9599;53.706;10.384;2023-05-07T15:37:12;18.90;99.90
18934;DHT22;9599;53.706;10.384;2023-05-07T15:39:40;18.90;99.90
18934;DHT22;9599;53.706;10.384;2023-05-07T15:42:09;18.90;99.90
18934;DHT22;9599;53.706;10.384;2023-05-07T15:44:37;18.80;99.90
18934;DHT22;9599;53.706;10.384;2023-05-07T15:47:05;18.80;99.90
18934;DHT22;9599;53.706;10.384;2023-05-07T15:49:33;18.90;99.90
18934;DHT22;9599;53.706;10.384;2023-05-07T15:52:02;19.00;99.90
18934;DHT22;9599;53.706;10.384;2023-05-07T15:54:30;19.00;99.90
18934;DHT22;9599;53.706;10.384;2023-05-07T15:56:58;19.00;99.90
18934;DHT22;9599;53.706;10.384;2023-05-07T15:59:27;19.00;99.90